sensor_id;sensor_type;location;lat;lon;timestamp;P1;durP1;ratioP1;P2;durP2;ratioP2
45236;SDS011;30973;51.442;3.580;2023-01-01T00:01:41;11.75;;;3.25;;
45236;SDS011;30973;51.442;3.580;2023-01-01T00:04:10;17.02;;;5.40;;
45236;SDS011;30973;51.442;3.580;2023-01-01T00:06:37;15.35;;;5.20;;
45236;SDS011;30973;51.442;3.580;2023-01-01T00:09:04;15.57;;;6.97;;
45236;SDS011;30973;51.442;3.580;2023-01-01T00:14:16;11.32;;;3.10;;
45236;SDS011;30973;51.442;3.580;2023-01-01T00:16:42;12.10;;;3.05;;
45236;SDS011;30973;51.442;3.580;2023-01-01T00:19:09;10.80;;;3.08;;
45236;SDS011;30973;51.442;3.580;2023-01-01T00:21:36;9.23;;;2.75;;
45236;SDS011;30973;51.442;3.580;2023-01-01T00:24:03;11.57;;;3.28;;
45236;SDS011;30973;51.442;3.580;2023-01-01T00:26:29;13.13;;;3.72;;
45236;SDS011;30973;51.442;3.580;2023-01-01T00:29:01;9.18;;;2.63;;
45236;SDS011;30973;51.442;3.580;2023-01-01T00:31:31;13.93;;;2.92;;
45236;SDS011;30973;51.442;3.580;2023-01-01T00:33:58;10.80;;;2.70;;
45236;SDS011;30973;51.442;3.580;2023-01-01T00:36:25;7.82;;;2.47;;
45236;SDS011;30973;51.442;3.580;2023-01-01T00:38:52;9.45;;;2.70;;
45236;SDS011;30973;51.442;3.580;2023-01-01T00:41:20;11.98;;;3.03;;
45236;SDS011;30973;51.442;3.580;2023-01-01T00:43:47;6.75;;;2.67;;
45236;SDS011;30973;51.442;3.580;2023-01-01T00:46:13;11.35;;;3.00;;
45236;SDS011;30973;51.442;3.580;2023-01-01T00:48:40;7.47;;;2.72;;
45236;SDS011;30973;51.442;3.580;2023-01-01T00:51:07;13.60;;;2.60;;
45236;SDS011;30973;51.442;3.580;2023-01-01T00:53:34;8.15;;;3.42;;
45236;SDS011;30973;51.442;3.580;2023-01-01T00:56:01;8.45;;;2.47;;
45236;SDS011;30973;51.442;3.580;2023-01-01T00:58:28;7.18;;;2.35;;
45236;SDS011;30973;51.442;3.580;2023-01-01T01:00:55;10.52;;;2.63;;
45236;SDS011;30973;51.442;3.580;2023-01-01T01:03:22;6.75;;;2.45;;
45236;SDS011;30973;51.442;3.580;2023-01-01T01:08:25;12.45;;;2.70;;
45236;SDS011;30973;51.442;3.580;2023-01-01T01:11:30;8.52;;;2.40;;
45236;SDS011;30973;51.442;3.580;2023-01-01T01:13:50;9.70;;;2.78;;
45236;SDS011;30973;51.442;3.580;2023-01-01T01:18:44;11.73;;;2.78;;
45236;SDS011;30973;51.442;3.580;2023-01-01T01:21:15;11.52;;;2.20;;
45236;SDS011;30973;51.442;3.580;2023-01-01T01:23:42;9.82;;;3.05;;
45236;SDS011;30973;51.442;3.580;2023-01-01T01:26:09;14.48;;;3.03;;
45236;SDS011;30973;51.442;3.580;2023-01-01T01:28:37;7.60;;;3.13;;
45236;SDS011;30973;51.442;3.580;2023-01-01T01:31:09;8.05;;;2.53;;
45236;SDS011;30973;51.442;3.580;2023-01-01T01:33:36;8.13;;;2.70;;
45236;SDS011;30973;51.442;3.580;2023-01-01T01:36:03;8.07;;;2.45;;
45236;SDS011;30973;51.442;3.580;2023-01-01T01:38:30;9.02;;;2.63;;
45236;SDS011;30973;51.442;3.580;2023-01-01T01:40:57;6.97;;;2.38;;
45236;SDS011;30973;51.442;3.580;2023-01-01T01:43:25;11.55;;;2.50;;
45236;SDS011;30973;51.442;3.580;2023-01-01T01:45:53;6.82;;;2.33;;
45236;SDS011;30973;51.442;3.580;2023-01-01T01:48:20;9.55;;;2.10;;
45236;SDS011;30973;51.442;3.580;2023-01-01T01:50:47;10.13;;;2.10;;
45236;SDS011;30973;51.442;3.580;2023-01-01T01:53:15;8.25;;;2.85;;
45236;SDS011;30973;51.442;3.580;2023-01-01T01:55:49;9.90;;;4.05;;
45236;SDS011;30973;51.442;3.580;2023-01-01T01:58:16;12.07;;;2.80;;
45236;SDS011;30973;51.442;3.580;2023-01-01T02:00:43;9.05;;;2.13;;
45236;SDS011;30973;51.442;3.580;2023-01-01T02:03:12;9.23;;;2.67;;
45236;SDS011;30973;51.442;3.580;2023-01-01T02:05:39;10.32;;;2.03;;
45236;SDS011;30973;51.442;3.580;2023-01-01T02:08:07;9.90;;;2.42;;
45236;SDS011;30973;51.442;3.580;2023-01-01T02:10:37;6.88;;;2.28;;
45236;SDS011;30973;51.442;3.580;2023-01-01T02:13:04;10.55;;;2.05;;
45236;SDS011;30973;51.442;3.580;2023-01-01T02:15:33;11.30;;;2.50;;
45236;SDS011;30973;51.442;3.580;2023-01-01T02:18:04;6.95;;;2.55;;
45236;SDS011;30973;51.442;3.580;2023-01-01T02:30:56;10.63;;;2.58;;
45236;SDS011;30973;51.442;3.580;2023-01-01T02:33:24;10.77;;;2.67;;
45236;SDS011;30973;51.442;3.580;2023-01-01T02:35:55;11.10;;;2.40;;
45236;SDS011;30973;51.442;3.580;2023-01-01T02:38:45;9.70;;;2.40;;
45236;SDS011;30973;51.442;3.580;2023-01-01T02:41:11;13.13;;;2.65;;
45236;SDS011;30973;51.442;3.580;2023-01-01T02:43:39;14.00;;;2.80;;
45236;SDS011;30973;51.442;3.580;2023-01-01T02:46:07;11.13;;;2.38;;
45236;SDS011;30973;51.442;3.580;2023-01-01T02:51:32;11.30;;;2.75;;
45236;SDS011;30973;51.442;3.580;2023-01-01T02:53:59;12.80;;;2.85;;
45236;SDS011;30973;51.442;3.580;2023-01-01T02:59:20;6.07;;;1.98;;
45236;SDS011;30973;51.442;3.580;2023-01-01T03:04:41;10.68;;;2.78;;
45236;SDS011;30973;51.442;3.580;2023-01-01T03:07:13;7.72;;;2.17;;
45236;SDS011;30973;51.442;3.580;2023-01-01T03:10:00;11.65;;;2.75;;
45236;SDS011;30973;51.442;3.580;2023-01-01T03:12:41;20.92;;;4.28;;
45236;SDS011;30973;51.442;3.580;2023-01-01T03:15:33;31.05;;;4.43;;
45236;SDS011;30973;51.442;3.580;2023-01-01T03:17:58;24.45;;;5.05;;
45236;SDS011;30973;51.442;3.580;2023-01-01T03:20:27;20.98;;;6.78;;
45236;SDS011;30973;51.442;3.580;2023-01-01T03:22:56;17.27;;;3.00;;
45236;SDS011;30973;51.442;3.580;2023-01-01T03:25:25;10.63;;;3.22;;
45236;SDS011;30973;51.442;3.580;2023-01-01T03:28:01;12.02;;;2.85;;
45236;SDS011;30973;51.442;3.580;2023-01-01T03:30:30;16.42;;;2.97;;
45236;SDS011;30973;51.442;3.580;2023-01-01T03:32:59;6.03;;;2.10;;
45236;SDS011;30973;51.442;3.580;2023-01-01T03:35:49;9.45;;;1.60;;
45236;SDS011;30973;51.442;3.580;2023-01-01T03:38:19;4.38;;;1.40;;
45236;SDS011;30973;51.442;3.580;2023-01-01T03:40:47;7.90;;;1.45;;
45236;SDS011;30973;51.442;3.580;2023-01-01T03:43:19;8.20;;;1.80;;
45236;SDS011;30973;51.442;3.580;2023-01-01T03:45:47;4.10;;;1.30;;
45236;SDS011;30973;51.442;3.580;2023-01-01T03:48:14;6.75;;;1.63;;
45236;SDS011;30973;51.442;3.580;2023-01-01T03:56:04;5.90;;;2.08;;
45236;SDS011;30973;51.442;3.580;2023-01-01T03:58:35;9.48;;;2.00;;
45236;SDS011;30973;51.442;3.580;2023-01-01T04:01:05;5.43;;;1.85;;
45236;SDS011;30973;51.442;3.580;2023-01-01T04:03:34;6.93;;;1.98;;
45236;SDS011;30973;51.442;3.580;2023-01-01T04:06:03;5.32;;;1.75;;
45236;SDS011;30973;51.442;3.580;2023-01-01T04:08:31;6.78;;;1.63;;
45236;SDS011;30973;51.442;3.580;2023-01-01T04:10:59;7.22;;;2.42;;
45236;SDS011;30973;51.442;3.580;2023-01-01T04:13:46;9.95;;;1.95;;
45236;SDS011;30973;51.442;3.580;2023-01-01T04:16:13;5.85;;;1.73;;
45236;SDS011;30973;51.442;3.580;2023-01-01T04:18:40;7.82;;;1.75;;
45236;SDS011;30973;51.442;3.580;2023-01-01T04:21:06;9.43;;;1.75;;
45236;SDS011;30973;51.442;3.580;2023-01-01T04:23:33;6.82;;;1.80;;
45236;SDS011;30973;51.442;3.580;2023-01-01T04:26:00;4.57;;;1.60;;
45236;SDS011;30973;51.442;3.580;2023-01-01T04:28:26;7.15;;;1.75;;
45236;SDS011;30973;51.442;3.580;2023-01-01T04:30:53;5.57;;;1.48;;
45236;SDS011;30973;51.442;3.580;2023-01-01T04:33:19;7.38;;;1.95;;
45236;SDS011;30973;51.442;3.580;2023-01-01T04:35:47;6.80;;;1.73;;
45236;SDS011;30973;51.442;3.580;2023-01-01T04:38:13;7.38;;;1.65;;
45236;SDS011;30973;51.442;3.580;2023-01-01T04:40:40;8.70;;;1.85;;
45236;SDS011;30973;51.442;3.580;2023-01-01T04:43:07;6.95;;;1.70;;
45236;SDS011;30973;51.442;3.580;2023-01-01T04:45:33;6.18;;;1.33;;
45236;SDS011;30973;51.442;3.580;2023-01-01T04:48:03;8.25;;;1.83;;
45236;SDS011;30973;51.442;3.580;2023-01-01T04:50:30;5.75;;;1.67;;
45236;SDS011;30973;51.442;3.580;2023-01-01T04:52:57;7.15;;;1.58;;
45236;SDS011;30973;51.442;3.580;2023-01-01T04:55:24;4.45;;;1.58;;
45236;SDS011;30973;51.442;3.580;2023-01-01T04:57:50;5.40;;;1.27;;
45236;SDS011;30973;51.442;3.580;2023-01-01T05:00:17;10.27;;;2.88;;
45236;SDS011;30973;51.442;3.580;2023-01-01T05:02:44;7.28;;;1.52;;
45236;SDS011;30973;51.442;3.580;2023-01-01T05:05:11;10.07;;;2.00;;
45236;SDS011;30973;51.442;3.580;2023-01-01T05:07:37;6.97;;;1.60;;
45236;SDS011;30973;51.442;3.580;2023-01-01T05:10:04;6.25;;;2.00;;
45236;SDS011;30973;51.442;3.580;2023-01-01T05:12:31;6.70;;;1.50;;
45236;SDS011;30973;51.442;3.580;2023-01-01T05:14:58;8.63;;;1.70;;
45236;SDS011;30973;51.442;3.580;2023-01-01T05:17:24;7.15;;;1.50;;
45236;SDS011;30973;51.442;3.580;2023-01-01T05:19:51;8.27;;;1.88;;
45236;SDS011;30973;51.442;3.580;2023-01-01T05:22:18;5.43;;;1.38;;
45236;SDS011;30973;51.442;3.580;2023-01-01T05:24:44;6.05;;;1.50;;
45236;SDS011;30973;51.442;3.580;2023-01-01T05:27:11;8.95;;;1.80;;
45236;SDS011;30973;51.442;3.580;2023-01-01T05:29:37;8.23;;;1.80;;
45236;SDS011;30973;51.442;3.580;2023-01-01T05:32:04;9.63;;;1.70;;
45236;SDS011;30973;51.442;3.580;2023-01-01T05:34:31;9.40;;;1.60;;
45236;SDS011;30973;51.442;3.580;2023-01-01T05:36:56;8.35;;;2.03;;
45236;SDS011;30973;51.442;3.580;2023-01-01T05:39:23;4.93;;;1.58;;
45236;SDS011;30973;51.442;3.580;2023-01-01T05:41:49;8.68;;;2.30;;
45236;SDS011;30973;51.442;3.580;2023-01-01T05:44:17;6.65;;;1.33;;
45236;SDS011;30973;51.442;3.580;2023-01-01T05:46:44;8.75;;;2.00;;
45236;SDS011;30973;51.442;3.580;2023-01-01T05:49:11;7.68;;;2.22;;
45236;SDS011;30973;51.442;3.580;2023-01-01T05:51:38;15.95;;;2.45;;
45236;SDS011;30973;51.442;3.580;2023-01-01T05:54:03;8.30;;;2.78;;
45236;SDS011;30973;51.442;3.580;2023-01-01T05:56:30;8.95;;;1.60;;
45236;SDS011;30973;51.442;3.580;2023-01-01T05:58:56;10.13;;;2.03;;
45236;SDS011;30973;51.442;3.580;2023-01-01T06:01:25;11.75;;;1.83;;
45236;SDS011;30973;51.442;3.580;2023-01-01T06:03:53;6.68;;;1.48;;
45236;SDS011;30973;51.442;3.580;2023-01-01T06:06:21;11.27;;;1.90;;
45236;SDS011;30973;51.442;3.580;2023-01-01T06:08:53;9.00;;;1.88;;
45236;SDS011;30973;51.442;3.580;2023-01-01T06:11:20;7.90;;;1.75;;
45236;SDS011;30973;51.442;3.580;2023-01-01T06:13:47;8.43;;;1.67;;
45236;SDS011;30973;51.442;3.580;2023-01-01T06:16:14;8.32;;;1.90;;
45236;SDS011;30973;51.442;3.580;2023-01-01T06:18:40;9.20;;;2.13;;
45236;SDS011;30973;51.442;3.580;2023-01-01T06:21:08;7.53;;;1.60;;
45236;SDS011;30973;51.442;3.580;2023-01-01T06:23:35;9.45;;;1.80;;
45236;SDS011;30973;51.442;3.580;2023-01-01T06:28:31;9.30;;;1.83;;
45236;SDS011;30973;51.442;3.580;2023-01-01T06:31:02;11.95;;;2.05;;
45236;SDS011;30973;51.442;3.580;2023-01-01T06:33:29;10.50;;;2.17;;
45236;SDS011;30973;51.442;3.580;2023-01-01T06:35:56;8.85;;;2.22;;
45236;SDS011;30973;51.442;3.580;2023-01-01T06:38:23;12.65;;;1.83;;
45236;SDS011;30973;51.442;3.580;2023-01-01T06:43:42;15.43;;;3.00;;
45236;SDS011;30973;51.442;3.580;2023-01-01T06:48:38;10.38;;;2.17;;
45236;SDS011;30973;51.442;3.580;2023-01-01T06:51:06;9.63;;;2.60;;
45236;SDS011;30973;51.442;3.580;2023-01-01T06:53:33;9.30;;;2.30;;
45236;SDS011;30973;51.442;3.580;2023-01-01T06:56:00;10.95;;;2.30;;
45236;SDS011;30973;51.442;3.580;2023-01-01T06:58:27;10.65;;;2.50;;
45236;SDS011;30973;51.442;3.580;2023-01-01T07:00:53;13.85;;;2.35;;
45236;SDS011;30973;51.442;3.580;2023-01-01T07:03:34;14.32;;;3.42;;
45236;SDS011;30973;51.442;3.580;2023-01-01T07:06:01;11.77;;;1.73;;
45236;SDS011;30973;51.442;3.580;2023-01-01T07:08:27;7.25;;;1.90;;
45236;SDS011;30973;51.442;3.580;2023-01-01T07:10:54;16.92;;;2.67;;
45236;SDS011;30973;51.442;3.580;2023-01-01T07:13:26;10.90;;;2.75;;
45236;SDS011;30973;51.442;3.580;2023-01-01T07:15:53;14.52;;;2.95;;
45236;SDS011;30973;51.442;3.580;2023-01-01T07:18:21;13.00;;;2.70;;
45236;SDS011;30973;51.442;3.580;2023-01-01T07:20:49;10.75;;;2.33;;
45236;SDS011;30973;51.442;3.580;2023-01-01T07:23:16;18.63;;;3.67;;
45236;SDS011;30973;51.442;3.580;2023-01-01T07:25:43;11.88;;;2.33;;
45236;SDS011;30973;51.442;3.580;2023-01-01T07:28:10;14.40;;;3.40;;
45236;SDS011;30973;51.442;3.580;2023-01-01T07:30:38;7.43;;;2.05;;
45236;SDS011;30973;51.442;3.580;2023-01-01T07:33:05;9.90;;;2.50;;
45236;SDS011;30973;51.442;3.580;2023-01-01T07:35:31;15.70;;;3.20;;
45236;SDS011;30973;51.442;3.580;2023-01-01T07:37:58;13.18;;;2.13;;
45236;SDS011;30973;51.442;3.580;2023-01-01T07:40:25;10.13;;;2.60;;
45236;SDS011;30973;51.442;3.580;2023-01-01T07:42:51;13.25;;;2.00;;
45236;SDS011;30973;51.442;3.580;2023-01-01T07:45:18;12.82;;;2.53;;
45236;SDS011;30973;51.442;3.580;2023-01-01T07:47:46;14.90;;;2.70;;
45236;SDS011;30973;51.442;3.580;2023-01-01T07:50:16;11.07;;;2.28;;
45236;SDS011;30973;51.442;3.580;2023-01-01T07:52:43;18.40;;;2.60;;
45236;SDS011;30973;51.442;3.580;2023-01-01T07:55:13;9.10;;;2.20;;
45236;SDS011;30973;51.442;3.580;2023-01-01T07:57:40;14.27;;;2.47;;
45236;SDS011;30973;51.442;3.580;2023-01-01T08:00:08;13.63;;;2.65;;
45236;SDS011;30973;51.442;3.580;2023-01-01T08:02:37;11.35;;;2.53;;
45236;SDS011;30973;51.442;3.580;2023-01-01T08:05:05;12.40;;;2.58;;
45236;SDS011;30973;51.442;3.580;2023-01-01T08:07:31;12.88;;;2.60;;
45236;SDS011;30973;51.442;3.580;2023-01-01T08:09:58;8.63;;;2.35;;
45236;SDS011;30973;51.442;3.580;2023-01-01T08:12:25;11.35;;;1.85;;
45236;SDS011;30973;51.442;3.580;2023-01-01T08:14:52;9.65;;;2.25;;
45236;SDS011;30973;51.442;3.580;2023-01-01T08:17:18;6.95;;;1.50;;
45236;SDS011;30973;51.442;3.580;2023-01-01T08:19:45;10.43;;;1.80;;
45236;SDS011;30973;51.442;3.580;2023-01-01T08:22:12;9.30;;;2.08;;
45236;SDS011;30973;51.442;3.580;2023-01-01T08:24:39;9.52;;;2.47;;
45236;SDS011;30973;51.442;3.580;2023-01-01T08:27:06;13.25;;;2.58;;
45236;SDS011;30973;51.442;3.580;2023-01-01T08:29:33;11.30;;;2.28;;
45236;SDS011;30973;51.442;3.580;2023-01-01T08:31:59;7.60;;;2.38;;
45236;SDS011;30973;51.442;3.580;2023-01-01T08:34:26;8.85;;;2.28;;
45236;SDS011;30973;51.442;3.580;2023-01-01T08:36:53;6.90;;;1.80;;
45236;SDS011;30973;51.442;3.580;2023-01-01T08:39:20;7.68;;;2.03;;
45236;SDS011;30973;51.442;3.580;2023-01-01T08:41:46;10.85;;;2.40;;
45236;SDS011;30973;51.442;3.580;2023-01-01T08:44:13;14.73;;;2.65;;
45236;SDS011;30973;51.442;3.580;2023-01-01T08:46:39;10.25;;;2.13;;
45236;SDS011;30973;51.442;3.580;2023-01-01T08:49:06;9.63;;;2.22;;
45236;SDS011;30973;51.442;3.580;2023-01-01T08:51:33;9.85;;;2.75;;
45236;SDS011;30973;51.442;3.580;2023-01-01T08:54:00;10.10;;;2.15;;
45236;SDS011;30973;51.442;3.580;2023-01-01T08:56:26;9.45;;;2.67;;
45236;SDS011;30973;51.442;3.580;2023-01-01T08:58:53;9.63;;;2.38;;
45236;SDS011;30973;51.442;3.580;2023-01-01T09:01:27;10.50;;;2.67;;
45236;SDS011;30973;51.442;3.580;2023-01-01T09:03:54;13.10;;;2.63;;
45236;SDS011;30973;51.442;3.580;2023-01-01T09:06:21;10.68;;;2.20;;
45236;SDS011;30973;51.442;3.580;2023-01-01T09:08:48;13.07;;;3.35;;
45236;SDS011;30973;51.442;3.580;2023-01-01T09:11:24;13.82;;;2.95;;
45236;SDS011;30973;51.442;3.580;2023-01-01T09:13:52;9.00;;;2.60;;
45236;SDS011;30973;51.442;3.580;2023-01-01T09:16:18;11.20;;;2.95;;
45236;SDS011;30973;51.442;3.580;2023-01-01T09:18:45;10.07;;;2.35;;
45236;SDS011;30973;51.442;3.580;2023-01-01T09:21:12;11.68;;;3.38;;
45236;SDS011;30973;51.442;3.580;2023-01-01T09:23:39;9.65;;;2.42;;
45236;SDS011;30973;51.442;3.580;2023-01-01T09:26:06;11.45;;;2.33;;
45236;SDS011;30973;51.442;3.580;2023-01-01T09:28:34;10.65;;;2.28;;
45236;SDS011;30973;51.442;3.580;2023-01-01T09:31:01;9.70;;;2.25;;
45236;SDS011;30973;51.442;3.580;2023-01-01T09:33:33;9.57;;;2.53;;
45236;SDS011;30973;51.442;3.580;2023-01-01T09:38:49;9.85;;;2.40;;
45236;SDS011;30973;51.442;3.580;2023-01-01T09:41:22;10.48;;;2.40;;
45236;SDS011;30973;51.442;3.580;2023-01-01T09:46:37;12.30;;;1.80;;
45236;SDS011;30973;51.442;3.580;2023-01-01T09:51:50;9.85;;;2.70;;
45236;SDS011;30973;51.442;3.580;2023-01-01T09:56:51;9.02;;;2.67;;
45236;SDS011;30973;51.442;3.580;2023-01-01T09:59:20;12.05;;;2.47;;
45236;SDS011;30973;51.442;3.580;2023-01-01T10:01:50;10.10;;;2.10;;
45236;SDS011;30973;51.442;3.580;2023-01-01T10:11:55;14.00;;;3.20;;
45236;SDS011;30973;51.442;3.580;2023-01-01T10:16:51;13.68;;;3.22;;
45236;SDS011;30973;51.442;3.580;2023-01-01T10:19:30;12.45;;;3.40;;
45236;SDS011;30973;51.442;3.580;2023-01-01T10:22:00;10.98;;;2.65;;
45236;SDS011;30973;51.442;3.580;2023-01-01T10:24:45;12.38;;;3.42;;
45236;SDS011;30973;51.442;3.580;2023-01-01T10:32:30;10.68;;;2.85;;
45236;SDS011;30973;51.442;3.580;2023-01-01T10:34:58;7.32;;;2.17;;
45236;SDS011;30973;51.442;3.580;2023-01-01T10:37:27;10.88;;;2.80;;
45236;SDS011;30973;51.442;3.580;2023-01-01T10:39:56;8.73;;;2.47;;
45236;SDS011;30973;51.442;3.580;2023-01-01T10:42:24;9.32;;;2.95;;
45236;SDS011;30973;51.442;3.580;2023-01-01T10:44:52;10.27;;;2.35;;
45236;SDS011;30973;51.442;3.580;2023-01-01T10:47:21;10.13;;;2.90;;
45236;SDS011;30973;51.442;3.580;2023-01-01T10:49:53;12.85;;;2.35;;
45236;SDS011;30973;51.442;3.580;2023-01-01T10:52:23;11.13;;;2.60;;
45236;SDS011;30973;51.442;3.580;2023-01-01T10:54:50;6.88;;;1.80;;
45236;SDS011;30973;51.442;3.580;2023-01-01T10:57:19;9.48;;;2.47;;
45236;SDS011;30973;51.442;3.580;2023-01-01T10:59:47;12.07;;;2.60;;
45236;SDS011;30973;51.442;3.580;2023-01-01T11:02:21;14.55;;;2.75;;
45236;SDS011;30973;51.442;3.580;2023-01-01T11:04:48;10.68;;;2.85;;
45236;SDS011;30973;51.442;3.580;2023-01-01T11:07:20;13.07;;;2.53;;
45236;SDS011;30973;51.442;3.580;2023-01-01T11:09:50;8.65;;;2.60;;
45236;SDS011;30973;51.442;3.580;2023-01-01T11:12:30;10.25;;;3.03;;
45236;SDS011;30973;51.442;3.580;2023-01-01T11:15:20;9.73;;;2.20;;
45236;SDS011;30973;51.442;3.580;2023-01-01T11:17:47;11.00;;;2.10;;
45236;SDS011;30973;51.442;3.580;2023-01-01T11:20:16;13.30;;;2.80;;
45236;SDS011;30973;51.442;3.580;2023-01-01T11:22:47;10.77;;;2.50;;
45236;SDS011;30973;51.442;3.580;2023-01-01T11:25:27;7.97;;;2.30;;
45236;SDS011;30973;51.442;3.580;2023-01-01T11:28:27;11.48;;;2.58;;
45236;SDS011;30973;51.442;3.580;2023-01-01T11:30:57;6.38;;;2.25;;
45236;SDS011;30973;51.442;3.580;2023-01-01T11:33:24;12.50;;;2.78;;
45236;SDS011;30973;51.442;3.580;2023-01-01T11:35:52;13.43;;;2.97;;
45236;SDS011;30973;51.442;3.580;2023-01-01T11:38:20;12.55;;;2.40;;
45236;SDS011;30973;51.442;3.580;2023-01-01T11:40:55;13.73;;;2.38;;
45236;SDS011;30973;51.442;3.580;2023-01-01T11:43:26;11.52;;;2.70;;
45236;SDS011;30973;51.442;3.580;2023-01-01T11:45:56;9.65;;;2.42;;
45236;SDS011;30973;51.442;3.580;2023-01-01T11:50:51;11.07;;;2.85;;
45236;SDS011;30973;51.442;3.580;2023-01-01T11:55:53;12.38;;;2.45;;
45236;SDS011;30973;51.442;3.580;2023-01-01T11:58:25;16.58;;;3.28;;
45236;SDS011;30973;51.442;3.580;2023-01-01T12:00:56;9.15;;;2.75;;
45236;SDS011;30973;51.442;3.580;2023-01-01T12:03:25;9.40;;;2.38;;
45236;SDS011;30973;51.442;3.580;2023-01-01T12:08:33;12.05;;;2.50;;
45236;SDS011;30973;51.442;3.580;2023-01-01T12:11:04;13.90;;;2.70;;
45236;SDS011;30973;51.442;3.580;2023-01-01T12:13:34;15.25;;;2.83;;
45236;SDS011;30973;51.442;3.580;2023-01-01T12:16:10;10.55;;;2.67;;
45236;SDS011;30973;51.442;3.580;2023-01-01T12:21:21;13.93;;;2.42;;
45236;SDS011;30973;51.442;3.580;2023-01-01T12:23:50;7.90;;;2.35;;
45236;SDS011;30973;51.442;3.580;2023-01-01T12:26:21;11.82;;;2.67;;
45236;SDS011;30973;51.442;3.580;2023-01-01T12:36:46;14.82;;;3.10;;
45236;SDS011;30973;51.442;3.580;2023-01-01T12:42:16;10.50;;;2.70;;
45236;SDS011;30973;51.442;3.580;2023-01-01T13:00:31;14.05;;;3.17;;
45236;SDS011;30973;51.442;3.580;2023-01-01T13:02:59;13.13;;;2.45;;
45236;SDS011;30973;51.442;3.580;2023-01-01T13:07:57;10.57;;;2.78;;
45236;SDS011;30973;51.442;3.580;2023-01-01T13:10:26;10.02;;;2.33;;
45236;SDS011;30973;51.442;3.580;2023-01-01T13:12:55;14.35;;;2.80;;
45236;SDS011;30973;51.442;3.580;2023-01-01T13:18:01;8.55;;;2.53;;
45236;SDS011;30973;51.442;3.580;2023-01-01T13:20:30;15.23;;;3.20;;
45236;SDS011;30973;51.442;3.580;2023-01-01T13:22:57;13.73;;;2.67;;
45236;SDS011;30973;51.442;3.580;2023-01-01T13:25:24;11.57;;;2.72;;
45236;SDS011;30973;51.442;3.580;2023-01-01T13:38:48;8.65;;;2.15;;
45236;SDS011;30973;51.442;3.580;2023-01-01T13:49:18;10.23;;;3.35;;
45236;SDS011;30973;51.442;3.580;2023-01-01T13:59:54;7.25;;;2.00;;
45236;SDS011;30973;51.442;3.580;2023-01-01T14:02:27;9.65;;;2.13;;
45236;SDS011;30973;51.442;3.580;2023-01-01T14:04:57;9.57;;;2.60;;
45236;SDS011;30973;51.442;3.580;2023-01-01T14:07:28;11.63;;;2.42;;
45236;SDS011;30973;51.442;3.580;2023-01-01T14:12:47;9.48;;;2.40;;
45236;SDS011;30973;51.442;3.580;2023-01-01T14:15:15;6.45;;;2.30;;
45236;SDS011;30973;51.442;3.580;2023-01-01T14:17:42;9.23;;;2.55;;
45236;SDS011;30973;51.442;3.580;2023-01-01T14:20:12;13.18;;;2.97;;
45236;SDS011;30973;51.442;3.580;2023-01-01T14:22:41;13.32;;;2.72;;
45236;SDS011;30973;51.442;3.580;2023-01-01T14:25:12;9.43;;;3.22;;
45236;SDS011;30973;51.442;3.580;2023-01-01T14:27:39;7.75;;;2.53;;
45236;SDS011;30973;51.442;3.580;2023-01-01T14:30:16;7.72;;;2.72;;
45236;SDS011;30973;51.442;3.580;2023-01-01T14:32:43;12.68;;;3.10;;
45236;SDS011;30973;51.442;3.580;2023-01-01T14:35:12;10.48;;;2.90;;
45236;SDS011;30973;51.442;3.580;2023-01-01T14:37:39;11.63;;;2.72;;
45236;SDS011;30973;51.442;3.580;2023-01-01T14:40:20;11.23;;;3.13;;
45236;SDS011;30973;51.442;3.580;2023-01-01T14:42:58;12.68;;;3.08;;
45236;SDS011;30973;51.442;3.580;2023-01-01T14:45:26;15.60;;;3.20;;
45236;SDS011;30973;51.442;3.580;2023-01-01T14:47:54;13.60;;;3.78;;
45236;SDS011;30973;51.442;3.580;2023-01-01T14:50:26;13.38;;;3.28;;
45236;SDS011;30973;51.442;3.580;2023-01-01T14:53:12;11.40;;;3.10;;
45236;SDS011;30973;51.442;3.580;2023-01-01T14:55:41;12.32;;;2.85;;
45236;SDS011;30973;51.442;3.580;2023-01-01T14:58:12;11.43;;;2.65;;
45236;SDS011;30973;51.442;3.580;2023-01-01T15:00:41;13.48;;;3.03;;
45236;SDS011;30973;51.442;3.580;2023-01-01T15:03:13;13.50;;;2.60;;
45236;SDS011;30973;51.442;3.580;2023-01-01T15:05:41;14.07;;;3.25;;
45236;SDS011;30973;51.442;3.580;2023-01-01T15:08:18;12.88;;;3.42;;
45236;SDS011;30973;51.442;3.580;2023-01-01T15:10:45;16.08;;;3.80;;
45236;SDS011;30973;51.442;3.580;2023-01-01T15:13:17;11.98;;;3.13;;
45236;SDS011;30973;51.442;3.580;2023-01-01T15:15:45;13.27;;;3.40;;
45236;SDS011;30973;51.442;3.580;2023-01-01T15:20:58;9.70;;;2.58;;
45236;SDS011;30973;51.442;3.580;2023-01-01T15:23:24;12.57;;;3.22;;
45236;SDS011;30973;51.442;3.580;2023-01-01T15:25:51;11.63;;;2.95;;
45236;SDS011;30973;51.442;3.580;2023-01-01T15:28:18;12.73;;;2.97;;
45236;SDS011;30973;51.442;3.580;2023-01-01T15:30:52;10.35;;;2.35;;
45236;SDS011;30973;51.442;3.580;2023-01-01T15:33:19;12.75;;;2.80;;
45236;SDS011;30973;51.442;3.580;2023-01-01T15:35:47;19.35;;;3.42;;
45236;SDS011;30973;51.442;3.580;2023-01-01T15:38:23;13.48;;;2.55;;
45236;SDS011;30973;51.442;3.580;2023-01-01T15:40:51;13.07;;;3.05;;
45236;SDS011;30973;51.442;3.580;2023-01-01T15:43:27;8.85;;;2.65;;
45236;SDS011;30973;51.442;3.580;2023-01-01T15:46:17;12.60;;;3.40;;
45236;SDS011;30973;51.442;3.580;2023-01-01T15:48:46;8.45;;;2.72;;
45236;SDS011;30973;51.442;3.580;2023-01-01T15:51:14;11.85;;;3.05;;
45236;SDS011;30973;51.442;3.580;2023-01-01T15:53:46;10.23;;;2.65;;
45236;SDS011;30973;51.442;3.580;2023-01-01T15:56:14;16.13;;;3.20;;
45236;SDS011;30973;51.442;3.580;2023-01-01T16:01:18;9.18;;;2.53;;
45236;SDS011;30973;51.442;3.580;2023-01-01T16:03:47;11.13;;;2.92;;
45236;SDS011;30973;51.442;3.580;2023-01-01T16:06:15;12.20;;;3.03;;
45236;SDS011;30973;51.442;3.580;2023-01-01T16:08:42;12.30;;;3.22;;
45236;SDS011;30973;51.442;3.580;2023-01-01T16:11:09;13.02;;;3.90;;
45236;SDS011;30973;51.442;3.580;2023-01-01T16:13:36;12.57;;;3.38;;
45236;SDS011;30973;51.442;3.580;2023-01-01T16:16:03;10.18;;;2.88;;
45236;SDS011;30973;51.442;3.580;2023-01-01T16:18:31;10.90;;;2.85;;
45236;SDS011;30973;51.442;3.580;2023-01-01T16:20:58;11.57;;;3.30;;
45236;SDS011;30973;51.442;3.580;2023-01-01T16:23:26;9.55;;;2.72;;
45236;SDS011;30973;51.442;3.580;2023-01-01T16:25:52;11.60;;;3.65;;
45236;SDS011;30973;51.442;3.580;2023-01-01T16:28:19;12.25;;;3.05;;
45236;SDS011;30973;51.442;3.580;2023-01-01T16:30:46;13.32;;;4.57;;
45236;SDS011;30973;51.442;3.580;2023-01-01T16:33:13;11.38;;;3.65;;
45236;SDS011;30973;51.442;3.580;2023-01-01T16:35:40;12.73;;;3.63;;
45236;SDS011;30973;51.442;3.580;2023-01-01T16:38:07;12.15;;;3.17;;
45236;SDS011;30973;51.442;3.580;2023-01-01T16:40:34;9.48;;;3.17;;
45236;SDS011;30973;51.442;3.580;2023-01-01T16:43:04;10.27;;;3.22;;
45236;SDS011;30973;51.442;3.580;2023-01-01T16:45:34;11.98;;;3.28;;
45236;SDS011;30973;51.442;3.580;2023-01-01T16:48:01;13.25;;;3.30;;
45236;SDS011;30973;51.442;3.580;2023-01-01T16:50:28;11.48;;;3.65;;
45236;SDS011;30973;51.442;3.580;2023-01-01T16:52:55;11.68;;;3.70;;
45236;SDS011;30973;51.442;3.580;2023-01-01T16:55:21;10.55;;;3.40;;
45236;SDS011;30973;51.442;3.580;2023-01-01T16:57:48;15.70;;;3.70;;
45236;SDS011;30973;51.442;3.580;2023-01-01T17:00:15;11.52;;;3.33;;
45236;SDS011;30973;51.442;3.580;2023-01-01T17:02:41;11.40;;;3.60;;
45236;SDS011;30973;51.442;3.580;2023-01-01T17:05:09;12.55;;;3.53;;
45236;SDS011;30973;51.442;3.580;2023-01-01T17:07:35;13.23;;;3.47;;
45236;SDS011;30973;51.442;3.580;2023-01-01T17:10:03;12.02;;;3.80;;
45236;SDS011;30973;51.442;3.580;2023-01-01T17:12:30;11.32;;;3.72;;
45236;SDS011;30973;51.442;3.580;2023-01-01T17:14:57;14.30;;;4.60;;